Weather reports worldwide

Advertisment
Väderöarna, Sweden (2501): temperature & dewpoint: 17.10.2019 21:00:00 - 23.10.2019 21:00:00 (CEST)Väderöarna, Sweden (2501): wind speed & gusts: 17.10.2019 21:00:00 - 23.10.2019 21:00:00 (CEST)Väderöarna, Sweden (2501): wind direction: 17.10.2019 21:00:00 - 23.10.2019 21:00:00 (CEST)Väderöarna, Sweden (2501): reduced air pressure: 17.10.2019 21:00:00 - 23.10.2019 21:00:00 (CEST)
Date & Time tt [°C] td [°C] ff [km/h] ff [kn] fx [km/h] fx [kn] dd ppp [hPa]
23.10.2019 21:00:00 - - - - - - - -
23.10.2019 20:00:00 11,7 8,5 29 16 40 22 SW 1013,7
23.10.2019 19:00:00 11,6 8,3 34 18 43 23 SW 1013,6
23.10.2019 18:00:00 11,7 7,6 34 18 40 22 SW 1013,4
23.10.2019 17:00:00 11,7 8,2 28 15 - - SW 1013,6
23.10.2019 16:00:00 11,9 8,6 28 15 38 20 SW 1013,9
23.10.2019 15:00:00 12,0 8,8 32 17 46 25 SW 1014,4
23.10.2019 14:00:00 11,9 8,7 38 21 46 25 SW 1014,9
23.10.2019 13:00:00 12,0 8,7 37 20 45 24 SW 1015,0
23.10.2019 12:00:00 11,9 8,4 38 21 51 28 SW 1015,0
23.10.2019 11:00:00 11,8 8,6 43 23 53 28 WSW 1014,6
23.10.2019 10:00:00 11,8 8,5 43 23 57 31 WSW 1014,5
23.10.2019 09:00:00 11,7 8,5 46 25 56 30 SW 1014,3
23.10.2019 08:00:00 11,8 8,5 45 24 59 32 WSW 1013,7
23.10.2019 07:00:00 11,6 8,8 45 24 58 31 SW 1013,8
23.10.2019 06:00:00 11,6 8,8 46 25 57 31 WSW 1013,5
23.10.2019 05:00:00 11,4 8,6 44 24 55 30 WSW 1013,8
23.10.2019 04:00:00 11,6 8,8 46 25 58 31 WSW 1013,7
23.10.2019 03:00:00 11,6 9,2 44 24 55 30 WSW 1014,0
23.10.2019 02:00:00 11,7 9,3 44 24 63 34 WSW 1014,4
23.10.2019 01:00:00 11,7 9,1 52 28 63 34 WSW 1013,9
23.10.2019 00:00:00 11,7 9,3 52 28 64 35 WSW 1013,8
22.10.2019 23:00:00 11,7 9,1 50 27 64 35 WSW 1013,5
22.10.2019 22:00:00 11,7 9,1 51 28 63 34 WSW 1013,3
22.10.2019 21:00:00 11,5 8,4 53 29 68 37 WSW 1013,0
22.10.2019 20:00:00 11,4 7,9 57 31 69 37 WSW 1012,7
22.10.2019 19:00:00 11,2 7,7 51 28 71 38 WSW 1013,0
22.10.2019 18:00:00 11,2 7,3 59 32 70 38 WSW 1012,8
22.10.2019 17:00:00 11,1 7,0 56 30 69 37 WSW 1012,9
22.10.2019 16:00:00 11,1 6,6 56 31 77 41 WSW 1012,9
22.10.2019 15:00:00 11,2 6,9 61 33 75 41 WSW 1013,1
22.10.2019 14:00:00 11,3 6,4 57 31 68 37 SW 1013,3
22.10.2019 13:00:00 11,2 6,3 53 29 68 37 WSW 1013,5
22.10.2019 12:00:00 11,1 6,4 46 25 60 32 WSW 1013,7
22.10.2019 11:00:00 11,0 6,5 46 25 60 32 WSW 1013,6
22.10.2019 10:00:00 10,9 6,8 46 25 58 32 WSW 1013,7
22.10.2019 09:00:00 11,1 8,1 44 24 55 30 WSW 1013,3
22.10.2019 08:00:00 11,2 7,3 42 23 54 29 WSW 1013,2
22.10.2019 07:00:00 11,2 8,2 42 23 56 31 WSW 1013,5
22.10.2019 06:00:00 11,1 7,4 46 25 55 30 WSW 1013,8
22.10.2019 05:00:00 10,7 7,8 39 21 54 29 WSW 1014,3
22.10.2019 04:00:00 11,0 7,5 36 19 44 24 SW 1014,9
22.10.2019 03:00:00 10,6 5,4 32 17 45 24 WSW 1015,4
22.10.2019 02:00:00 10,5 5,9 39 21 48 26 WSW 1015,9
22.10.2019 01:00:00 9,6 5,4 29 16 40 22 SW 1016,8
22.10.2019 00:00:00 8,0 5,6 25 14 32 17 S 1017,2
21.10.2019 23:00:00 7,5 5,1 19 10 24 13 SSW 1018,0
21.10.2019 22:00:00 6,9 4,4 10 5 20 11 WSW 1018,8
21.10.2019 21:00:00 6,1 3,9 9 5 17 9 SSW 1019,2
21.10.2019 20:00:00 5,4 3,6 5 3 13 7 S 1019,4
21.10.2019 19:00:00 5,2 3,2 7 4 13 7 WNW 1019,8
21.10.2019 18:00:00 4,9 3,2 2 1 9 5 N 1019,9
21.10.2019 17:00:00 4,9 3,6 4 2 - - SW 1020,3
21.10.2019 16:00:00 4,5 2,8 6 4 14 7 WNW 1020,9
21.10.2019 15:00:00 4,4 2,9 4 2 10 6 E 1021,0
21.10.2019 14:00:00 4,3 2,6 4 2 10 6 ENE 1021,5
21.10.2019 13:00:00 4,0 2,4 3 2 14 8 NNE 1021,8
21.10.2019 12:00:00 3,9 2,7 7 4 15 8 ENE 1021,2
21.10.2019 11:00:00 3,6 2,3 7 4 13 7 N 1020,6
21.10.2019 10:00:00 3,8 2,5 10 5 16 9 NNE 1020,6
21.10.2019 09:00:00 3,9 2,7 12 6 20 11 NNE 1020,5
21.10.2019 08:00:00 4,1 2,6 9 5 23 13 N 1020,4
21.10.2019 07:00:00 4,1 3,1 13 7 24 13 N 1019,3
21.10.2019 06:00:00 4,4 3,1 7 4 26 14 NNE 1018,9
21.10.2019 05:00:00 4,6 3,6 16 8 26 14 NNE 1018,2
21.10.2019 04:00:00 5,2 3,7 16 9 29 15 N 1017,9
21.10.2019 03:00:00 5,7 4,0 15 8 29 16 N 1017,4
21.10.2019 02:00:00 6,3 4,1 21 11 29 16 NNW 1016,8
21.10.2019 01:00:00 6,2 4,4 18 10 31 17 NNW 1016,4
21.10.2019 00:00:00 6,6 4,4 22 12 39 21 NNW 1015,6
20.10.2019 23:00:00 6,9 5,1 18 10 29 16 NNW 1015,0
20.10.2019 22:00:00 7,6 5,7 23 12 30 16 NNW 1014,2
20.10.2019 21:00:00 7,8 5,9 17 9 30 16 N 1013,6
20.10.2019 20:00:00 8,2 6,7 15 8 27 15 NNW 1013,0
20.10.2019 19:00:00 8,5 6,8 22 12 29 16 NNW 1012,2
20.10.2019 18:00:00 8,7 7,2 23 12 32 17 NNW 1011,5
20.10.2019 17:00:00 9,1 7,7 21 11 26 14 NNW 1010,7
20.10.2019 16:00:00 9,1 7,7 16 9 24 13 N 1009,9
20.10.2019 15:00:00 9,3 7,7 16 8 21 11 N 1009,6
20.10.2019 14:00:00 9,5 8,1 14 7 22 12 N 1009,1
20.10.2019 13:00:00 9,4 8,5 12 6 18 10 NNW 1008,7
20.10.2019 12:00:00 10,0 8,8 13 7 19 11 NNW 1007,8
20.10.2019 11:00:00 10,9 9,3 11 6 19 11 WNW 1007,2
20.10.2019 10:00:00 11,8 9,5 18 10 22 12 WSW 1006,6
20.10.2019 09:00:00 11,4 9,8 19 10 30 16 SW 1005,9
20.10.2019 08:00:00 11,0 10,4 9 5 23 12 SSW 1005,3
20.10.2019 07:00:00 10,9 10,3 13 7 15 8 SSE 1004,8
20.10.2019 06:00:00 10,5 10,0 10 6 17 9 ESE 1004,4
20.10.2019 05:00:00 10,6 10,0 16 9 23 13 E 1004,1
20.10.2019 04:00:00 10,6 10,0 19 11 24 13 E 1004,2
20.10.2019 03:00:00 10,7 10,2 21 11 28 15 E 1004,3
20.10.2019 02:00:00 11,0 10,4 21 12 25 14 ESE 1004,5
20.10.2019 01:00:00 11,2 10,4 18 10 22 12 ESE 1004,6
20.10.2019 00:00:00 11,9 10,8 16 9 28 15 SSE 1004,8
19.10.2019 23:00:00 12,0 10,4 26 14 34 18 SSE 1004,6
19.10.2019 22:00:00 12,2 10,4 28 15 38 21 S 1004,4
19.10.2019 21:00:00 12,1 10,2 34 18 42 23 S 1004,0
19.10.2019 20:00:00 10,7 8,6 9 5 32 18 S 1004,0
19.10.2019 19:00:00 11,6 10,5 29 16 38 21 SW 1003,6
19.10.2019 18:00:00 11,2 9,1 19 11 30 16 W 1002,8
19.10.2019 17:00:00 10,8 8,7 26 14 44 24 WSW 1002,2
19.10.2019 16:00:00 11,0 8,9 33 18 64 35 SW 1002,2
19.10.2019 15:00:00 12,5 10,0 44 24 61 33 SSW 1001,5
19.10.2019 14:00:00 12,6 10,0 48 26 61 33 SSW 1001,0
19.10.2019 13:00:00 12,3 9,1 45 24 65 35 SW 1000,6
19.10.2019 12:00:00 11,9 9,8 47 26 73 40 SW 1000,2
19.10.2019 11:00:00 10,5 10,3 39 21 64 34 SW 999,6
19.10.2019 10:00:00 11,7 9,8 53 29 69 37 SSW 999,0
19.10.2019 09:00:00 11,8 9,5 49 27 67 36 SSW 998,2
19.10.2019 08:00:00 11,4 9,7 50 27 67 36 SSW 997,8
19.10.2019 07:00:00 11,9 9,6 48 26 64 34 S 997,0
19.10.2019 06:00:00 12,0 9,6 45 24 65 35 S 996,6
19.10.2019 05:00:00 11,9 9,1 46 25 61 33 S 996,3
19.10.2019 04:00:00 11,8 9,5 43 23 57 31 SSW 996,3
19.10.2019 03:00:00 11,6 9,3 32 17 46 25 S 996,1
19.10.2019 02:00:00 11,4 9,3 37 20 65 35 S 996,2
19.10.2019 01:00:00 11,8 11,2 48 26 70 38 SE 995,4
19.10.2019 00:00:00 11,0 10,4 33 18 48 26 E 996,5
18.10.2019 23:00:00 10,5 9,9 39 21 47 25 E 997,1
18.10.2019 22:00:00 10,1 9,3 31 17 42 23 E 998,7
18.10.2019 21:00:00 10,0 8,9 34 19 42 23 E 999,8
18.10.2019 20:00:00 10,0 8,9 33 18 45 24 E 1001,1
18.10.2019 19:00:00 9,8 8,9 36 20 44 24 E 1001,7
18.10.2019 18:00:00 9,8 8,4 32 17 41 22 E 1002,3
18.10.2019 17:00:00 10,0 8,1 28 15 37 20 E 1003,0
18.10.2019 16:00:00 10,4 8,0 29 15 34 19 E 1003,8
18.10.2019 15:00:00 10,4 8,0 25 14 31 17 E 1004,5
18.10.2019 14:00:00 10,5 8,4 22 12 26 14 E 1005,4
18.10.2019 13:00:00 10,5 8,4 18 10 23 12 E 1006,0
18.10.2019 12:00:00 10,5 8,9 18 10 23 12 E 1006,5
18.10.2019 11:00:00 9,5 9,4 23 12 31 17 ESE 1007,0
18.10.2019 10:00:00 9,0 9,0 25 13 29 15 SE 1007,4
18.10.2019 09:00:00 10,5 9,6 22 12 29 15 SE 1007,4
18.10.2019 08:00:00 10,3 9,4 22 12 25 14 SE 1007,3
18.10.2019 07:00:00 11,6 9,3 20 11 23 12 S 1007,2
18.10.2019 06:00:00 11,5 7,4 16 9 25 14 SSW 1007,5
18.10.2019 05:00:00 11,6 7,1 20 11 25 13 SW 1007,5
18.10.2019 04:00:00 11,7 6,4 19 10 41 22 SSW 1007,4
18.10.2019 03:00:00 12,0 8,3 27 15 32 17 WSW 1007,5
18.10.2019 02:00:00 11,8 9,0 20 11 42 23 SW 1007,5
18.10.2019 01:00:00 12,4 6,9 29 16 48 26 WSW 1007,3
18.10.2019 00:00:00 12,3 8,9 29 16 39 21 SW 1007,3
17.10.2019 23:00:00 11,4 9,1 40 21 48 26 SW 1007,1
17.10.2019 22:00:00 11,5 8,9 21 12 45 24 SSW 1006,9
17.10.2019 21:00:00 11,6 10,3 32 17 40 21 WSW 1006,7

tt = temperature
td = dewpoint
ff = wind speed
fx = gusts
dd = wind direction
ppp = reduced air pressure

Next stations